Time;durP1;ratioP1;P1;durP2;ratioP2;P2;SDS_P1;SDS_P2;PMS_P1;PMS_P2;Temp;Humidity;BMP_temperature;BMP_pressure;BME280_temperature;BME280_humidity;BME280_pressure;Samples;Min_cycle;Max_cycle;Signal;HPM_P1;HPM_P2
2022/10/08 00:01:09;;;;;;;11.65;2.63;;;12.30;99.90;;;;;;5056485;28;20162;-68
2022/10/08 00:03:42;;;;;;;32.25;4.55;;;12.30;99.90;;;;;;5057130;28;20029;-68
2022/10/08 00:06:13;;;;;;;37.30;3.60;;;12.30;99.90;;;;;;5057658;28;20469;-69
2022/10/08 00:08:41;;;;;;;25.25;3.28;;;12.30;99.90;;;;;;5056702;28;20044;-69
2022/10/08 00:11:10;;;;;;;19.30;3.67;;;12.30;99.90;;;;;;5056069;28;20024;-68
2022/10/08 00:13:41;;;;;;;20.65;3.85;;;12.30;99.90;;;;;;5056664;28;20029;-68
2022/10/08 00:16:30;;;;;;;34.45;4.05;;;12.30;99.90;;;;;;5056374;28;20083;-68
2022/10/08 00:19:09;;;;;;;27.45;3.53;;;12.20;99.90;;;;;;5056661;28;20028;-68
2022/10/08 00:21:37;;;;;;;17.17;3.10;;;12.20;99.90;;;;;;5056412;28;20136;-69
2022/10/08 00:24:04;;;;;;;30.73;4.13;;;12.20;99.90;;;;;;5055642;28;20025;-68
2022/10/08 00:26:32;;;;;;;25.80;4.85;;;12.20;99.90;;;;;;5056543;28;20029;-68
2022/10/08 00:29:00;;;;;;;36.67;4.68;;;12.20;99.90;;;;;;5056432;28;20017;-68
2022/10/08 00:31:30;;;;;;;30.42;3.95;;;12.10;99.90;;;;;;5056311;28;20032;-68
2022/10/08 00:33:57;;;;;;;44.70;5.03;;;12.20;99.90;;;;;;5056558;28;20078;-68
2022/10/08 00:36:25;;;;;;;34.78;5.80;;;12.20;99.90;;;;;;5056266;28;20488;-68
2022/10/08 00:38:59;;;;;;;25.08;4.88;;;12.30;99.90;;;;;;5055551;28;20041;-68
2022/10/08 00:41:25;;;;;;;;;;;12.20;99.90;;;;;;5056385;28;20050;-68
2022/10/08 00:43:54;;;;;;;62.67;6.38;;;12.30;99.90;;;;;;5055399;28;20326;-68
2022/10/08 00:46:27;;;;;;;51.97;6.95;;;12.30;99.90;;;;;;5055633;28;20021;-68
2022/10/08 00:49:16;;;;;;;47.42;7.03;;;12.40;99.90;;;;;;5055918;28;20100;-68
2022/10/08 00:51:50;;;;;;;51.92;7.32;;;12.30;99.90;;;;;;5056066;28;20055;-68
2022/10/08 00:54:18;;;;;;;38.30;4.72;;;12.40;99.90;;;;;;5055933;28;20033;-68
2022/10/08 00:56:46;;;;;;;42.00;5.20;;;12.40;99.90;;;;;;5055710;28;20025;-68
2022/10/08 00:59:12;;;;;;;50.30;5.85;;;12.30;99.90;;;;;;5055378;28;20384;-68
2022/10/08 01:01:41;;;;;;;44.95;5.30;;;12.40;99.90;;;;;;5055880;28;20025;-68
2022/10/08 01:04:08;;;;;;;37.33;5.55;;;12.30;99.90;;;;;;5055709;28;20473;-68
2022/10/08 01:06:58;;;;;;;28.80;4.43;;;12.30;99.90;;;;;;5055577;28;20104;-68
2022/10/08 01:09:40;;;;;;;23.63;4.75;;;12.30;99.90;;;;;;5055217;28;20067;-68
2022/10/08 01:12:17;;;;;;;29.92;4.47;;;12.30;99.90;;;;;;5055718;28;20016;-68
2022/10/08 01:14:55;;;;;;;25.33;3.85;;;12.20;99.90;;;;;;5055480;28;20040;-68
2022/10/08 01:17:29;;;;;;;25.77;3.60;;;12.20;99.90;;;;;;5055422;28;20035;-68
2022/10/08 01:20:13;;;;;;;30.23;4.85;;;12.20;99.90;;;;;;5055539;28;20059;-68
2022/10/08 01:22:58;;;;;;;24.17;3.38;;;12.20;99.90;;;;;;5055490;28;20027;-68
2022/10/08 01:25:52;;;;;;;18.67;3.45;;;12.20;99.90;;;;;;5054567;28;20025;-68
2022/10/08 01:28:23;;;;;;;;;;;12.20;99.90;;;;;;5021530;28;20037;-68
2022/10/08 01:30:58;;;;;;;22.48;4.70;;;12.20;99.90;;;;;;5055048;28;19951;-68
2022/10/08 01:33:30;;;;;;;27.17;3.22;;;12.20;99.90;;;;;;5054693;28;20021;-68
2022/10/08 01:35:58;;;;;;;11.90;2.25;;;12.00;99.90;;;;;;5054923;28;20048;-68
2022/10/08 01:38:28;;;;;;;21.17;2.88;;;12.00;99.90;;;;;;5054961;28;20373;-68
2022/10/08 01:40:57;;;;;;;16.83;2.25;;;12.00;99.90;;;;;;5054278;28;20543;-68
2022/10/08 01:43:29;;;;;;;11.95;2.88;;;11.90;99.90;;;;;;5055026;28;20431;-68
2022/10/08 01:46:00;;;;;;;20.92;3.00;;;11.90;99.90;;;;;;5054675;28;20017;-68
2022/10/08 01:48:32;;;;;;;15.95;2.33;;;11.80;99.90;;;;;;5055017;28;20020;-68
2022/10/08 01:51:05;;;;;;;23.85;3.08;;;11.80;99.90;;;;;;5054648;28;20112;-68
2022/10/08 01:53:35;;;;;;;13.77;4.18;;;11.80;99.90;;;;;;5053579;28;20037;-68
2022/10/08 01:56:04;;;;;;;13.32;2.38;;;11.90;99.90;;;;;;5054583;28;20094;-68
2022/10/08 01:58:43;;;;;;;13.73;2.75;;;11.90;99.90;;;;;;5055056;28;20025;-68
2022/10/08 02:01:14;;;;;;;17.23;2.90;;;11.90;99.90;;;;;;5053228;28;20045;-68
2022/10/08 02:04:31;;;;;;;18.25;2.30;;;11.90;99.90;;;;;;5053907;28;20029;-68
2022/10/08 02:06:27;;;;;;;28.52;4.35;;;12.00;99.90;;;;;;5054192;28;20461;-68
2022/10/08 02:08:52;;;;;;;22.52;2.72;;;12.00;99.90;;;;;;5054508;28;20074;-68
2022/10/08 02:11:18;;;;;;;7.50;2.42;;;12.00;99.90;;;;;;5054309;28;20017;-68
2022/10/08 02:13:44;;;;;;;20.70;2.30;;;12.00;99.90;;;;;;5053783;28;20033;-68
2022/10/08 02:16:19;;;;;;;14.95;3.20;;;12.00;99.90;;;;;;5054133;28;20029;-68
2022/10/08 02:18:53;;;;;;;33.67;3.53;;;12.00;99.90;;;;;;5054577;28;20390;-68
2022/10/08 02:21:26;;;;;;;26.80;3.65;;;12.10;99.90;;;;;;5054360;28;20033;-68
2022/10/08 02:24:02;;;;;;;43.28;6.00;;;12.00;99.90;;;;;;5054270;28;20021;-68
2022/10/08 02:26:35;;;;;;;18.15;3.15;;;12.10;99.90;;;;;;5054338;28;20036;-68
2022/10/08 02:29:05;;;;;;;35.13;4.40;;;12.10;99.90;;;;;;5053754;28;20536;-68
2022/10/08 02:31:37;;;;;;;23.40;3.63;;;12.00;99.90;;;;;;5054985;28;20485;-68
2022/10/08 02:34:22;;;;;;;29.95;4.85;;;12.00;99.90;;;;;;5040111;28;20029;-68
2022/10/08 02:37:00;;;;;;;32.38;5.20;;;12.00;99.90;;;;;;5053384;28;20048;-68
2022/10/08 02:39:29;;;;;;;32.50;4.50;;;12.00;99.90;;;;;;5053892;28;20045;-68
2022/10/08 02:42:00;;;;;;;23.95;3.65;;;11.90;99.90;;;;;;5053894;28;20067;-68
2022/10/08 02:44:37;;;;;;;27.83;4.30;;;12.00;99.90;;;;;;5053113;28;20465;-68
2022/10/08 02:47:07;;;;;;;29.85;5.05;;;12.00;99.90;;;;;;5054028;28;20025;-68
2022/10/08 02:49:38;;;;;;;34.80;3.97;;;12.00;99.90;;;;;;5053636;28;20017;-68
2022/10/08 02:52:07;;;;;;;29.95;4.57;;;12.00;99.90;;;;;;5053907;28;20025;-68
2022/10/08 02:54:37;;;;;;;36.70;5.35;;;12.00;99.90;;;;;;5053575;28;20365;-68
2022/10/08 02:57:06;;;;;;;28.38;4.53;;;12.00;99.90;;;;;;5053657;28;20423;-68
2022/10/08 02:59:32;;;;;;;24.13;4.03;;;12.00;99.90;;;;;;5052831;28;20436;-68
2022/10/08 03:02:02;;;;;;;33.53;4.82;;;12.00;99.90;;;;;;5053616;28;20044;-68
2022/10/08 03:04:39;;;;;;;24.77;3.58;;;12.00;99.90;;;;;;5053244;28;20031;-68
2022/10/08 03:07:06;;;;;;;34.05;3.90;;;12.00;99.90;;;;;;5052889;28;20025;-68
2022/10/08 03:09:36;;;;;;;37.08;4.13;;;12.00;99.90;;;;;;5053727;28;20074;-68
2022/10/08 03:12:02;;;;;;;31.83;4.32;;;12.00;99.90;;;;;;5053334;28;20017;-68
2022/10/08 03:14:32;;;;;;;37.95;4.05;;;12.00;99.90;;;;;;5053703;28;20032;-68
2022/10/08 03:16:58;;;;;;;33.20;3.40;;;11.90;99.90;;;;;;5052964;28;20033;-69
2022/10/08 03:19:24;;;;;;;29.08;4.32;;;11.80;99.90;;;;;;5053225;28;20392;-69
2022/10/08 03:21:53;;;;;;;27.80;3.55;;;11.70;99.90;;;;;;5053156;28;20033;-69
2022/10/08 03:24:19;;;;;;;22.42;3.33;;;11.70;99.90;;;;;;5053055;28;20063;-69
2022/10/08 03:26:44;;;;;;;23.65;2.97;;;11.60;99.90;;;;;;5053146;28;20419;-69
2022/10/08 03:29:10;;;;;;;29.67;3.42;;;11.60;99.90;;;;;;5053220;28;20025;-69
2022/10/08 03:31:35;;;;;;;28.60;2.63;;;11.50;99.90;;;;;;5052417;28;20017;-69
2022/10/08 03:34:01;;;;;;;19.52;3.63;;;11.60;99.90;;;;;;5052866;28;20048;-69
2022/10/08 03:36:28;;;;;;;27.35;3.28;;;11.50;99.90;;;;;;5053067;28;20473;-69
2022/10/08 03:38:53;;;;;;;18.50;2.63;;;11.50;99.90;;;;;;5051759;28;20075;-69
2022/10/08 03:41:19;;;;;;;24.83;2.85;;;11.40;99.90;;;;;;5053291;28;20033;-69
2022/10/08 03:43:44;;;;;;;22.08;3.40;;;11.50;99.90;;;;;;5052307;28;20047;-69
2022/10/08 03:46:12;;;;;;;15.73;2.40;;;11.50;99.90;;;;;;5053322;28;20029;-69
2022/10/08 03:48:38;;;;;;;21.45;2.65;;;11.50;99.90;;;;;;5052909;28;20021;-69
2022/10/08 03:51:15;;;;;;;30.83;2.97;;;11.50;99.90;;;;;;5053078;28;20017;-69
2022/10/08 03:53:42;;;;;;;39.15;3.38;;;11.50;99.90;;;;;;5051137;28;20079;-69
2022/10/08 03:56:13;;;;;;;24.30;3.92;;;11.50;99.90;;;;;;5053851;28;20123;-69
2022/10/08 03:58:39;;;;;;;30.33;3.53;;;11.40;99.90;;;;;;5052890;28;20388;-69
2022/10/08 04:01:11;;;;;;;16.77;2.90;;;11.50;99.90;;;;;;5053032;28;20021;-69
2022/10/08 04:03:36;;;;;;;30.55;3.95;;;11.50;99.90;;;;;;5053085;28;20033;-69
2022/10/08 04:06:02;;;;;;;18.30;2.88;;;11.60;99.90;;;;;;5052914;28;20029;-69
2022/10/08 04:08:28;;;;;;;42.72;3.35;;;11.70;99.90;;;;;;5052653;28;20033;-69
2022/10/08 04:10:54;;;;;;;38.58;5.07;;;11.70;99.90;;;;;;5052834;28;20032;-69
2022/10/08 04:13:20;;;;;;;22.65;3.17;;;11.80;99.90;;;;;;5053016;28;20025;-69
2022/10/08 04:15:46;;;;;;;35.85;3.22;;;11.90;99.90;;;;;;5052049;28;20073;-69
2022/10/08 04:18:12;;;;;;;27.52;3.35;;;11.80;99.90;;;;;;5055344;28;20473;-69
2022/10/08 04:20:42;;;;;;;31.65;3.00;;;11.80;99.90;;;;;;5056370;28;20028;-69
2022/10/08 04:23:08;;;;;;;34.13;3.67;;;11.60;99.90;;;;;;5056721;28;20021;-69
2022/10/08 04:25:37;;;;;;;21.50;2.88;;;11.50;99.90;;;;;;5055648;28;20103;-69
2022/10/08 04:28:05;;;;;;;25.73;3.30;;;11.40;99.90;;;;;;5056351;28;20420;-69
2022/10/08 04:30:31;;;;;;;24.55;4.05;;;11.20;99.90;;;;;;5056688;28;20029;-69
2022/10/08 04:32:57;;;;;;;26.60;3.33;;;11.00;99.90;;;;;;5056103;28;20434;-69
2022/10/08 04:35:23;;;;;;;24.00;3.35;;;10.90;99.90;;;;;;5056017;28;20028;-69
2022/10/08 04:37:49;;;;;;;17.75;2.65;;;10.80;99.90;;;;;;5055628;28;20028;-69
2022/10/08 04:40:14;;;;;;;19.05;2.80;;;10.70;99.90;;;;;;5056007;28;20389;-69
2022/10/08 04:42:40;;;;;;;24.67;3.67;;;10.60;99.90;;;;;;5055988;28;20029;-69
2022/10/08 04:45:06;;;;;;;25.10;2.42;;;10.40;99.90;;;;;;5055784;28;20082;-69
2022/10/08 04:47:31;;;;;;;19.10;2.60;;;10.30;99.90;;;;;;5056023;28;20380;-69
2022/10/08 04:49:57;;;;;;;20.27;2.40;;;10.20;99.90;;;;;;5056351;28;20029;-69
2022/10/08 04:52:22;;;;;;;18.20;2.72;;;10.00;99.90;;;;;;5055515;28;20420;-69
2022/10/08 04:54:48;;;;;;;21.60;2.78;;;9.90;99.90;;;;;;5056135;28;20025;-69
2022/10/08 04:57:13;;;;;;;13.63;2.40;;;9.80;99.90;;;;;;5056134;28;20021;-69
2022/10/08 04:59:39;;;;;;;11.70;1.85;;;9.70;99.90;;;;;;5055836;28;20029;-69
2022/10/08 05:02:05;;;;;;;17.75;3.33;;;9.60;99.90;;;;;;5055280;28;20024;-69
2022/10/08 05:04:31;;;;;;;29.42;4.30;;;9.50;99.90;;;;;;5055385;28;20029;-69
2022/10/08 05:06:56;;;;;;;17.25;3.10;;;9.40;99.90;;;;;;5055487;28;20497;-69
2022/10/08 05:09:22;;;;;;;23.10;3.65;;;9.30;99.90;;;;;;5055433;28;20021;-69
2022/10/08 05:11:50;;;;;;;20.38;3.15;;;9.40;99.90;;;;;;5055515;28;20029;-69
2022/10/08 05:14:15;;;;;;;19.10;2.80;;;9.30;99.90;;;;;;5054669;28;20059;-69
2022/10/08 05:16:41;;;;;;;20.17;2.70;;;9.30;99.90;;;;;;5055269;28;20060;-69
2022/10/08 05:19:07;;;;;;;18.48;2.28;;;9.30;99.90;;;;;;5055280;28;20473;-69
2022/10/08 05:21:32;;;;;;;21.08;2.75;;;9.20;99.90;;;;;;5055514;28;20436;-69
2022/10/08 05:24:05;;;;;;;22.65;3.28;;;9.10;99.90;;;;;;5055255;28;20033;-69
2022/10/08 05:26:37;;;;;;;15.35;3.05;;;9.10;99.90;;;;;;5054869;28;20032;-69
2022/10/08 05:29:03;;;;;;;36.20;4.95;;;9.00;99.90;;;;;;5055328;28;20020;-69
2022/10/08 05:31:30;;;;;;;24.13;4.78;;;8.90;99.90;;;;;;5055006;28;20476;-69
2022/10/08 05:33:56;;;;;;;20.92;3.63;;;8.90;99.90;;;;;;5055752;28;20373;-69
2022/10/08 05:36:25;;;;;;;24.70;3.97;;;8.90;99.90;;;;;;5054971;28;20389;-69
2022/10/08 05:38:51;;;;;;;17.92;3.67;;;8.90;99.90;;;;;;5054921;28;20181;-69
2022/10/08 05:41:22;;;;;;;20.75;3.63;;;8.80;99.90;;;;;;5054242;28;20020;-69
2022/10/08 05:43:48;;;;;;;25.75;3.28;;;8.70;99.90;;;;;;5054959;28;20033;-69
2022/10/08 05:46:15;;;;;;;27.30;4.38;;;8.70;99.90;;;;;;5055277;28;20048;-69
2022/10/08 05:48:41;;;;;;;31.75;4.80;;;8.70;99.90;;;;;;5054996;28;20040;-69
2022/10/08 05:51:12;;;;;;;32.75;6.32;;;8.70;99.90;;;;;;5054859;28;20025;-69
2022/10/08 05:53:40;;;;;;;21.67;7.03;;;8.70;99.90;;;;;;5054327;28;20020;-69
2022/10/08 05:56:09;;;;;;;29.42;7.45;;;8.70;99.90;;;;;;5055178;28;20100;-69
2022/10/08 05:58:36;;;;;;;22.55;5.93;;;8.60;99.90;;;;;;5054574;28;20090;-69
2022/10/08 06:01:05;;;;;;;24.63;5.13;;;8.70;99.90;;;;;;5054745;28;20477;-69
2022/10/08 06:03:31;;;;;;;19.40;3.70;;;8.70;99.90;;;;;;5054930;28;20115;-69
2022/10/08 06:06:05;;;;;;;25.58;4.78;;;8.80;99.90;;;;;;5054798;28;20017;-69
2022/10/08 06:08:31;;;;;;;19.63;3.28;;;8.80;99.90;;;;;;5053818;28;20384;-69
2022/10/08 06:10:57;;;;;;;14.20;3.63;;;8.90;99.90;;;;;;5054290;28;20465;-69
2022/10/08 06:13:23;;;;;;;17.88;2.50;;;8.90;99.90;;;;;;5054883;28;20086;-69
2022/10/08 06:15:59;;;;;;;27.90;3.17;;;8.90;99.90;;;;;;5054007;28;20036;-69
2022/10/08 06:18:27;;;;;;;25.40;4.88;;;9.00;99.90;;;;;;5053664;28;20028;-69
2022/10/08 06:20:53;;;;;;;32.50;4.35;;;9.00;99.90;;;;;;5054376;28;20017;-69
2022/10/08 06:23:19;;;;;;;40.30;4.00;;;9.30;99.90;;;;;;5054219;28;20025;-69
2022/10/08 06:25:45;;;;;;;35.42;3.75;;;9.50;99.90;;;;;;5053863;28;20033;-69
2022/10/08 06:28:13;;;;;;;24.52;4.85;;;9.60;99.90;;;;;;5053693;28;20166;-69
2022/10/08 06:30:40;;;;;;;54.83;8.63;;;9.80;99.90;;;;;;5052671;28;20112;-69
2022/10/08 06:33:07;;;;;;;44.55;12.50;;;10.00;99.90;;;;;;5053915;28;20021;-69
2022/10/08 06:35:33;;;;;;;42.40;4.55;;;10.20;99.90;;;;;;5053745;28;20112;-69
2022/10/08 06:37:59;;;;;;;30.27;6.35;;;10.40;99.90;;;;;;5052095;28;20032;-69
2022/10/08 06:40:24;;;;;;;31.45;6.45;;;10.60;99.90;;;;;;5053354;28;20420;-69
2022/10/08 06:42:51;;;;;;;40.90;6.47;;;10.90;99.90;;;;;;5054137;28;20552;-69
2022/10/08 06:45:16;;;;;;;22.10;4.55;;;11.10;99.90;;;;;;5053798;28;20025;-69
2022/10/08 06:47:42;;;;;;;32.28;5.72;;;11.30;99.90;;;;;;5053287;28;20465;-69
2022/10/08 06:50:08;;;;;;;25.63;3.92;;;11.50;99.90;;;;;;5053610;28;20032;-69
2022/10/08 06:52:34;;;;;;;46.10;5.93;;;11.50;99.90;;;;;;5053734;28;20074;-69
2022/10/08 06:54:59;;;;;;;20.63;4.65;;;11.50;99.90;;;;;;5052868;28;20032;-69
2022/10/08 06:57:25;;;;;;;29.52;4.07;;;11.30;99.90;;;;;;5053443;28;20057;-69
2022/10/08 06:59:53;;;;;;;12.38;2.63;;;11.10;99.90;;;;;;5053465;28;20068;-68
2022/10/08 07:02:19;;;;;;;19.00;2.30;;;11.00;99.90;;;;;;5053936;28;20473;-68
2022/10/08 07:04:44;;;;;;;16.48;2.35;;;10.90;99.90;;;;;;5051506;28;20032;-68
2022/10/08 07:07:10;;;;;;;14.25;3.08;;;10.80;99.90;;;;;;5053362;28;20048;-68
2022/10/08 07:09:35;;;;;;;19.48;2.22;;;10.70;99.90;;;;;;5053173;28;20024;-68
2022/10/08 07:12:01;;;;;;;17.98;2.10;;;10.60;99.90;;;;;;5053562;28;20477;-68
2022/10/08 07:14:26;;;;;;;12.07;1.83;;;10.60;99.90;;;;;;5053073;28;20052;-68
2022/10/08 07:16:52;;;;;;;16.45;2.30;;;10.50;99.90;;;;;;5052721;28;20052;-68
2022/10/08 07:19:17;;;;;;;27.95;2.47;;;10.50;99.90;;;;;;5053196;28;20531;-69
2022/10/08 07:21:43;;;;;;;29.35;3.35;;;10.50;99.90;;;;;;5053163;28;20082;-69
2022/10/08 07:24:08;;;;;;;10.00;2.65;;;10.60;99.90;;;;;;5053438;28;20028;-69
2022/10/08 07:26:34;;;;;;;11.27;1.85;;;10.80;99.90;;;;;;5053495;28;20027;-69
2022/10/08 07:29:03;;;;;;;9.25;1.33;;;10.90;99.90;;;;;;5053456;28;20021;-69
2022/10/08 07:31:32;;;;;;;13.52;1.83;;;10.90;99.90;;;;;;5052661;28;20033;-69
2022/10/08 07:33:59;;;;;;;8.75;1.90;;;10.80;99.90;;;;;;5052991;28;20541;-69
2022/10/08 07:36:26;;;;;;;12.07;1.90;;;10.70;99.90;;;;;;5053080;28;20065;-69
2022/10/08 07:38:53;;;;;;;10.82;1.23;;;10.60;99.90;;;;;;5053189;28;20036;-69
2022/10/08 07:41:19;;;;;;;10.85;1.83;;;10.60;99.90;;;;;;5053420;28;20059;-69
2022/10/08 07:43:53;;;;;;;17.92;2.10;;;10.80;99.90;;;;;;5052858;28;20037;-69
2022/10/08 07:46:19;;;;;;;15.15;2.03;;;11.10;99.90;;;;;;5052680;28;20025;-69
2022/10/08 07:48:45;;;;;;;13.35;2.05;;;11.30;99.90;;;;;;5052971;28;20127;-69
2022/10/08 07:51:12;;;;;;;14.38;2.45;;;11.60;99.90;;;;;;5053109;28;20048;-69
2022/10/08 07:53:38;;;;;;;12.00;1.83;;;11.90;99.90;;;;;;5056175;28;20024;-69
2022/10/08 07:56:05;;;;;;;18.63;2.53;;;12.10;99.90;;;;;;5056353;28;20075;-69
2022/10/08 07:58:30;;;;;;;12.73;1.90;;;12.10;99.90;;;;;;5057377;28;20365;-67
2022/10/08 08:00:57;;;;;;;14.63;3.13;;;11.90;99.90;;;;;;5056820;28;20017;-68
2022/10/08 08:03:23;;;;;;;16.42;2.13;;;11.70;99.90;;;;;;5057004;28;20022;-69
2022/10/08 08:05:49;;;;;;;22.05;2.55;;;11.50;99.90;;;;;;5056592;28;20496;-69
2022/10/08 08:08:14;;;;;;;15.20;2.65;;;11.50;99.90;;;;;;5056655;28;20039;-69
2022/10/08 08:10:40;;;;;;;14.68;2.67;;;11.50;99.90;;;;;;5056028;28;20465;-69
2022/10/08 08:13:05;;;;;;;31.95;8.77;;;11.40;99.90;;;;;;5056539;28;20485;-68
2022/10/08 08:15:31;;;;;;;63.40;26.83;;;11.50;99.90;;;;;;5056377;28;20519;-68
2022/10/08 08:17:57;;;;;;;34.25;11.32;;;11.50;99.90;;;;;;5055968;28;20548;-68
2022/10/08 08:20:23;;;;;;;19.13;3.85;;;11.40;99.90;;;;;;5056405;28;20028;-69
2022/10/08 08:22:48;;;;;;;13.18;2.25;;;11.40;99.90;;;;;;5056344;28;20074;-69
2022/10/08 08:25:14;;;;;;;13.80;2.28;;;11.30;99.90;;;;;;5056368;28;20025;-68
2022/10/08 08:27:40;;;;;;;11.25;2.13;;;11.20;99.90;;;;;;5056267;28;20025;-68
2022/10/08 08:30:06;;;;;;;14.60;2.58;;;11.10;99.90;;;;;;5056200;28;20025;-69
2022/10/08 08:32:32;;;;;;;22.50;3.63;;;11.10;99.90;;;;;;5055693;28;20037;-69
2022/10/08 08:34:57;;;;;;;16.70;2.35;;;11.00;99.90;;;;;;5056092;28;20040;-69
2022/10/08 08:37:23;;;;;;;20.60;2.08;;;11.00;99.90;;;;;;5056048;28;20393;-69
2022/10/08 08:39:49;;;;;;;24.00;3.83;;;11.20;99.90;;;;;;5056252;28;20025;-69
2022/10/08 08:42:55;;;;;;;21.35;3.33;;;11.40;99.90;;;;;;5056180;28;20031;-69
2022/10/08 08:45:26;;;;;;;14.00;2.22;;;11.50;99.90;;;;;;5055855;28;20021;-69
2022/10/08 08:48:04;;;;;;;22.15;3.08;;;11.70;99.90;;;;;;5050090;28;20021;-69
2022/10/08 08:50:34;;;;;;;19.40;2.97;;;11.90;99.90;;;;;;5036303;28;20022;-69
2022/10/08 08:53:01;;;;;;;20.45;2.88;;;12.10;99.90;;;;;;5036096;28;20500;-69
2022/10/08 08:55:42;;;;;;;20.52;2.33;;;12.30;99.90;;;;;;5035817;28;20030;-69
2022/10/08 08:58:32;;;;;;;15.52;2.30;;;12.40;99.90;;;;;;5035288;28;20029;-70
2022/10/08 09:01:09;;;;;;;17.23;2.15;;;12.50;99.90;;;;;;5036037;28;20021;-69
2022/10/08 09:03:44;;;;;;;15.93;2.33;;;12.60;99.90;;;;;;5036883;28;20111;-69
2022/10/08 09:06:13;;;;;;;19.98;3.53;;;12.80;99.90;;;;;;5055861;28;20024;-69
2022/10/08 09:09:15;;;;;;;16.50;2.55;;;13.20;99.90;;;;;;5055689;28;20021;-69
2022/10/08 09:11:42;;;;;;;17.38;2.17;;;13.40;99.90;;;;;;5055332;28;20052;-70
2022/10/08 09:14:08;;;;;;;20.83;2.22;;;13.70;99.90;;;;;;5055469;28;20401;-70
2022/10/08 09:16:34;;;;;;;18.45;2.47;;;13.80;99.90;;;;;;5055783;28;20028;-70
2022/10/08 09:19:00;;;;;;;14.38;2.95;;;13.70;99.90;;;;;;5055410;28;20033;-69
2022/10/08 09:21:29;;;;;;;23.05;2.97;;;13.60;99.90;;;;;;5055281;28;20040;-69
2022/10/08 09:23:54;;;;;;;21.15;2.53;;;13.40;99.90;;;;;;5054698;28;20028;-70
2022/10/08 09:26:22;;;;;;;19.02;2.40;;;13.30;99.90;;;;;;5055493;28;20408;-70
2022/10/08 09:28:52;;;;;;;22.85;2.88;;;13.30;99.90;;;;;;5055479;28;20055;-70
2022/10/08 09:31:35;;;;;;;20.75;3.90;;;13.50;99.90;;;;;;5055123;28;20055;-70
2022/10/08 09:34:04;;;;;;;20.23;3.55;;;13.50;99.90;;;;;;5054519;28;20031;-70
2022/10/08 09:36:46;;;;;;;9.07;1.98;;;13.70;99.90;;;;;;5055254;28;20025;-70
2022/10/08 09:39:26;;;;;;;15.52;2.83;;;13.80;99.90;;;;;;5055002;28;20033;-70
2022/10/08 09:42:06;;;;;;;17.30;2.67;;;13.90;99.90;;;;;;5054435;28;20029;-70
2022/10/08 09:44:57;;;;;;;20.13;3.03;;;13.90;99.90;;;;;;5054671;28;20017;-70
2022/10/08 09:47:25;;;;;;;10.93;2.00;;;13.80;99.90;;;;;;5055356;28;20090;-70
2022/10/08 09:50:06;;;;;;;11.20;2.00;;;13.90;99.90;;;;;;5055574;28;20029;-70
2022/10/08 09:52:33;;;;;;;13.38;2.10;;;14.10;99.90;;;;;;5044364;28;20026;-70
2022/10/08 09:55:28;;;;;;;10.32;1.58;;;14.00;99.90;;;;;;5034323;28;20036;-70
2022/10/08 09:57:59;;;;;;;15.93;2.25;;;13.80;99.90;;;;;;5030947;28;20060;-70
2022/10/08 10:00:31;;;;;;;24.65;7.07;;;13.70;99.90;;;;;;5034948;28;20029;-70
2022/10/08 10:02:59;;;;;;;22.90;3.28;;;13.90;99.90;;;;;;5034904;28;20075;-71
2022/10/08 10:05:28;;;;;;;17.20;2.85;;;13.90;99.90;;;;;;5054335;28;20099;-70
2022/10/08 10:07:54;;;;;;;17.05;2.92;;;13.90;99.90;;;;;;5054685;28;20380;-70
2022/10/08 10:10:37;;;;;;;20.45;3.63;;;14.10;99.90;;;;;;5053890;28;20097;-70
2022/10/08 10:13:16;;;;;;;7.03;2.00;;;14.20;99.90;;;;;;5054369;28;20021;-70
2022/10/08 10:15:52;;;;;;;17.90;3.58;;;14.30;99.90;;;;;;5053325;28;20033;-70
2022/10/08 10:18:22;;;;;;;12.50;2.35;;;14.30;99.90;;;;;;5054202;28;20033;-70
2022/10/08 10:21:05;;;;;;;8.93;1.95;;;14.30;99.90;;;;;;5054266;28;20505;-70
2022/10/08 10:23:39;;;;;;;18.93;2.80;;;14.30;99.90;;;;;;5053648;28;20035;-70
2022/10/08 10:26:10;;;;;;;16.25;2.90;;;14.40;99.90;;;;;;5054018;28;20347;-70
2022/10/08 10:28:49;;;;;;;15.77;2.88;;;14.50;99.90;;;;;;5054286;28;20487;-70
2022/10/08 10:31:23;;;;;;;9.98;2.38;;;14.70;99.90;;;;;;5054124;28;20079;-70
2022/10/08 10:34:00;;;;;;;15.77;2.45;;;14.60;99.90;;;;;;5053418;28;20029;-70
2022/10/08 10:36:30;;;;;;;10.57;2.38;;;14.60;99.90;;;;;;5054005;28;20024;-70
2022/10/08 10:39:16;;;;;;;16.25;3.60;;;14.60;99.90;;;;;;5053917;28;20025;-70
2022/10/08 10:42:05;;;;;;;22.73;3.17;;;14.70;99.90;;;;;;5054038;28;20024;-70
2022/10/08 10:44:52;;;;;;;16.85;2.90;;;14.30;99.90;;;;;;5012446;28;20052;-70
2022/10/08 10:47:29;;;;;;;14.73;3.53;;;13.90;99.90;;;;;;5053994;28;20032;-70
2022/10/08 10:49:55;;;;;;;16.95;3.88;;;13.60;99.90;;;;;;5053948;28;20056;-70
2022/10/08 10:52:44;;;;;;;20.58;4.60;;;13.40;99.90;;;;;;5053715;28;20063;-70
2022/10/08 10:55:43;;;;;;;17.48;2.60;;;13.30;99.90;;;;;;5053259;28;20025;-70
2022/10/08 10:58:37;;;;;;;22.98;2.63;;;13.40;99.90;;;;;;5019837;28;20033;-70
2022/10/08 11:01:26;;;;;;;15.35;3.08;;;13.70;99.90;;;;;;5052239;28;20045;-70
2022/10/08 11:04:02;;;;;;;15.30;3.03;;;14.20;99.90;;;;;;5014458;28;20516;-70
2022/10/08 11:06:28;;;;;;;19.70;3.15;;;14.50;99.90;;;;;;5053408;28;20017;-70
2022/10/08 11:09:22;;;;;;;108.55;64.38;;;14.70;99.90;;;;;;5053320;28;20052;-70
2022/10/08 11:11:53;;;;;;;19.42;2.63;;;14.90;99.90;;;;;;5053512;28;20068;-71
2022/10/08 11:14:43;;;;;;;8.85;1.98;;;14.70;99.90;;;;;;5052811;28;20041;-70
2022/10/08 11:17:20;;;;;;;19.65;2.30;;;14.60;99.90;;;;;;5053608;28;20476;-70
2022/10/08 11:19:56;;;;;;;10.18;2.05;;;14.70;99.90;;;;;;5053434;28;20064;-70
2022/10/08 11:22:59;;;;;;;12.00;2.08;;;14.80;99.90;;;;;;5053565;28;20104;-70
2022/10/08 11:25:56;;;;;;;11.27;3.30;;;15.10;99.90;;;;;;5012273;28;20420;-70
2022/10/08 11:28:49;;;;;;;19.88;2.70;;;15.30;99.90;;;;;;5058647;28;20036;-70
2022/10/08 11:31:41;;;;;;;25.38;2.85;;;15.20;99.90;;;;;;5060379;28;20064;-70
2022/10/08 11:34:25;;;;;;;15.00;2.58;;;15.20;99.90;;;;;;5059754;28;20380;-70
2022/10/08 11:37:08;;;;;;;15.90;2.92;;;15.10;99.90;;;;;;5059499;28;20137;-70
2022/10/08 11:39:52;;;;;;;28.20;5.35;;;15.10;99.90;;;;;;5060313;28;20025;-70
2022/10/08 11:42:39;;;;;;;22.67;5.93;;;14.90;99.90;;;;;;5059950;28;20025;-70
2022/10/08 11:45:21;;;;;;;7.72;1.67;;;14.30;99.90;;;;;;5059880;28;20025;-70
2022/10/08 11:47:49;;;;;;;16.58;2.72;;;13.80;99.90;;;;;;5059975;28;20032;-70
2022/10/08 11:50:36;;;;;;;19.05;3.72;;;13.70;99.90;;;;;;5057934;28;20028;-70
2022/10/08 11:53:15;;;;;;;15.68;2.70;;;14.00;99.90;;;;;;5059674;28;20029;-70
2022/10/08 11:55:56;;;;;;;25.98;3.80;;;14.00;99.90;;;;;;5059875;28;20033;-70
2022/10/08 11:58:31;;;;;;;22.20;4.95;;;13.70;99.90;;;;;;5059898;28;20025;-70
2022/10/08 12:01:07;;;;;;;21.25;2.50;;;13.60;99.90;;;;;;5059205;28;20021;-70
2022/10/08 12:03:36;;;;;;;25.30;3.58;;;14.20;99.90;;;;;;5059863;28;20028;-70
2022/10/08 12:06:23;;;;;;;25.92;2.75;;;15.00;99.90;;;;;;5059491;28;20508;-70
2022/10/08 12:09:00;;;;;;;15.10;3.35;;;15.60;99.90;;;;;;5059783;28;20028;-70
2022/10/08 12:11:31;;;;;;;18.98;3.10;;;15.90;99.90;;;;;;5059839;28;20014;-70
2022/10/08 12:14:17;;;;;;;19.98;3.25;;;15.80;99.90;;;;;;5059027;28;20079;-71
2022/10/08 12:16:54;;;;;;;18.95;4.57;;;15.50;99.90;;;;;;5019049;28;20409;-70
2022/10/08 12:19:32;;;;;;;13.82;2.45;;;15.30;99.90;;;;;;5059749;28;20028;-70
2022/10/08 12:22:23;;;;;;;12.07;1.95;;;14.50;99.90;;;;;;5059697;28;20035;-70
2022/10/08 12:24:57;;;;;;;9.13;1.85;;;13.40;99.90;;;;;;5044971;28;20072;-70
2022/10/08 12:27:25;;;;;;;15.10;2.15;;;12.70;99.90;;;;;;5059035;28;20377;-70
2022/10/08 12:29:59;;;;;;;17.23;2.33;;;12.70;99.90;;;;;;5059612;28;20029;-70
2022/10/08 12:32:49;;;;;;;18.80;2.42;;;13.10;99.90;;;;;;5059297;28;20021;-70
2022/10/08 12:35:39;;;;;;;14.77;2.65;;;13.90;99.90;;;;;;5048800;28;20044;-70
2022/10/08 12:38:23;;;;;;;18.17;2.13;;;14.60;99.90;;;;;;5057049;28;20074;-70
2022/10/08 12:41:04;;;;;;;13.00;2.03;;;15.30;99.90;;;;;;5056397;28;20025;-70
2022/10/08 12:43:45;;;;;;;16.80;1.90;;;16.10;99.90;;;;;;5056087;28;20063;-70
2022/10/08 12:46:36;;;;;;;17.38;2.75;;;15.90;99.90;;;;;;5056538;28;20104;-70
2022/10/08 12:49:23;;;;;;;11.60;3.00;;;15.10;99.90;;;;;;5055449;28;20120;-70
2022/10/08 12:51:54;;;;;;;16.02;2.05;;;14.40;99.90;;;;;;5056198;28;20381;-70
2022/10/08 12:54:25;;;;;;;19.73;2.58;;;13.80;99.90;;;;;;5055845;28;20028;-70
2022/10/08 12:56:51;;;;;;;28.77;3.92;;;13.50;99.90;;;;;;5056021;28;20044;-70
2022/10/08 12:59:20;;;;;;;10.35;1.85;;;14.00;99.90;;;;;;5056029;28;20021;-70
2022/10/08 13:01:47;;;;;;;8.95;1.73;;;14.70;99.90;;;;;;5055164;28;20036;-70